Time;durP1;ratioP1;P1;durP2;ratioP2;P2;SDS_P1;SDS_P2;PMS_P1;PMS_P2;Temp;Humidity;BMP_temperature;BMP_pressure;BME280_temperature;BME280_humidity;BME280_pressure;Samples;Min_cycle;Max_cycle;Signal;HPM_P1;HPM_P2
2024/02/02 00:00:08;;;;;;;22.37;4.00;;;4.40;99.90;;;;;;5080497;28;20172;-80
2024/02/02 00:02:40;;;;;;;41.47;7.90;;;4.40;99.90;;;;;;5079673;28;20446;-80
2024/02/02 00:05:06;;;;;;;28.35;6.45;;;4.50;99.90;;;;;;5082245;28;20387;-80
2024/02/02 00:07:32;;;;;;;28.75;4.88;;;4.50;99.90;;;;;;5082832;28;20188;-81
2024/02/02 00:09:59;;;;;;;29.25;4.93;;;4.60;99.90;;;;;;5080246;28;20164;-80
2024/02/02 00:12:25;;;;;;;28.50;4.53;;;4.60;99.90;;;;;;5078328;28;20581;-80
2024/02/02 00:14:51;;;;;;;23.60;4.35;;;4.70;99.90;;;;;;5081697;28;20183;-80
2024/02/02 00:17:18;;;;;;;27.90;4.73;;;4.70;99.90;;;;;;5081982;28;20184;-80
2024/02/02 00:19:44;;;;;;;27.23;5.18;;;4.70;99.90;;;;;;5081718;28;20403;-80
2024/02/02 00:22:10;;;;;;;27.90;4.70;;;4.80;99.90;;;;;;5081776;28;20199;-80
2024/02/02 00:24:35;;;;;;;24.33;4.60;;;4.80;99.90;;;;;;5081588;28;20223;-80
2024/02/02 00:27:02;;;;;;;26.60;4.80;;;4.90;99.90;;;;;;5080558;28;20187;-80
2024/02/02 00:29:28;;;;;;;28.60;5.30;;;5.00;99.90;;;;;;5082002;28;20406;-80
2024/02/02 00:31:53;;;;;;;27.95;4.70;;;5.00;99.90;;;;;;5081897;28;20165;-80
2024/02/02 00:34:19;;;;;;;32.00;4.47;;;4.90;99.90;;;;;;5081987;28;20652;-80
2024/02/02 00:36:45;;;;;;;25.73;7.20;;;5.00;99.90;;;;;;5082132;28;20186;-80
2024/02/02 00:39:11;;;;;;;32.47;4.90;;;4.90;99.90;;;;;;5081318;28;20161;-80
2024/02/02 00:41:37;;;;;;;30.60;5.13;;;4.90;99.90;;;;;;5085473;28;20164;-80
2024/02/02 00:44:04;;;;;;;25.63;4.80;;;5.00;99.90;;;;;;5085170;28;20654;-80
2024/02/02 00:46:29;;;;;;;23.80;3.92;;;5.00;99.90;;;;;;5085715;28;20446;-80
2024/02/02 00:48:55;;;;;;;25.23;4.50;;;4.90;99.90;;;;;;5085037;28;20168;-80
2024/02/02 00:51:21;;;;;;;30.87;5.00;;;4.90;99.90;;;;;;5085002;28;20164;-80
2024/02/02 00:53:47;;;;;;;27.93;7.07;;;4.80;99.90;;;;;;5083534;28;20402;-80
2024/02/02 00:56:13;;;;;;;27.77;4.30;;;4.80;99.90;;;;;;5084711;28;20187;-80
2024/02/02 00:58:38;;;;;;;22.92;4.82;;;4.70;99.90;;;;;;5083918;28;20196;-80
2024/02/02 01:01:04;;;;;;;25.77;4.70;;;4.70;99.90;;;;;;5083994;28;20684;-80
2024/02/02 01:03:33;;;;;;;21.47;4.70;;;4.60;99.90;;;;;;5084307;28;20254;-80
2024/02/02 01:05:59;;;;;;;22.90;4.70;;;4.60;99.90;;;;;;5082991;28;20227;-80
2024/02/02 01:08:25;;;;;;;25.48;4.47;;;4.60;99.90;;;;;;5081560;28;20194;-81
2024/02/02 01:10:51;;;;;;;25.27;4.70;;;4.50;99.90;;;;;;5085508;28;20188;-80
2024/02/02 01:13:17;;;;;;;23.80;4.00;;;4.50;99.90;;;;;;5085066;28;20403;-80
2024/02/02 01:15:42;;;;;;;21.20;3.93;;;4.50;99.90;;;;;;5085173;28;20193;-80
2024/02/02 01:18:08;;;;;;;36.03;5.77;;;4.60;99.90;;;;;;5085805;28;20218;-80
2024/02/02 01:20:34;;;;;;;20.00;4.10;;;4.60;99.90;;;;;;5084687;28;20399;-80
2024/02/02 01:23:00;;;;;;;24.02;4.85;;;4.60;99.90;;;;;;5085008;28;20192;-80
2024/02/02 01:25:29;;;;;;;25.85;5.32;;;4.60;99.90;;;;;;5084874;28;20576;-80
2024/02/02 01:27:58;;;;;;;22.35;4.47;;;4.70;99.90;;;;;;5083279;28;20212;-80
2024/02/02 01:30:23;;;;;;;25.85;4.28;;;4.70;99.90;;;;;;5084952;28;20164;-80
2024/02/02 01:32:49;;;;;;;27.67;4.07;;;4.80;99.90;;;;;;5084595;28;20165;-80
2024/02/02 01:35:17;;;;;;;23.42;4.25;;;4.80;99.90;;;;;;5082737;28;20168;-80
2024/02/02 01:37:46;;;;;;;24.10;4.50;;;4.80;99.90;;;;;;5082618;28;20582;-80
2024/02/02 01:40:15;;;;;;;22.45;4.05;;;4.80;99.90;;;;;;5084895;28;20173;-80
2024/02/02 01:42:41;;;;;;;21.40;4.68;;;4.80;99.90;;;;;;5084165;28;20192;-80
2024/02/02 01:45:07;;;;;;;22.77;3.97;;;4.80;99.90;;;;;;5084303;28;20165;-80
2024/02/02 01:47:34;;;;;;;24.75;4.78;;;4.80;99.90;;;;;;5082086;28;20176;-80
2024/02/02 01:50:00;;;;;;;33.85;5.10;;;4.80;99.90;;;;;;5084328;28;20161;-80
2024/02/02 01:52:26;;;;;;;21.85;4.50;;;4.70;99.90;;;;;;5083359;28;20164;-80
2024/02/02 01:54:52;;;;;;;31.40;4.85;;;4.80;99.90;;;;;;5080974;28;20172;-81
2024/02/02 01:57:20;;;;;;;30.37;5.13;;;4.80;99.90;;;;;;5082438;28;20195;-80
2024/02/02 01:59:46;;;;;;;22.58;4.35;;;4.70;99.90;;;;;;5083469;28;20425;-80
2024/02/02 02:02:12;;;;;;;27.67;3.93;;;4.70;99.90;;;;;;5083862;28;20275;-80
2024/02/02 02:04:40;;;;;;;23.70;4.50;;;4.60;99.90;;;;;;5083475;28;20152;-80
2024/02/02 02:07:06;;;;;;;25.90;4.43;;;4.50;99.90;;;;;;5084199;28;20187;-80
2024/02/02 02:09:33;;;;;;;30.33;5.43;;;4.50;99.90;;;;;;5083503;28;20153;-80
2024/02/02 02:12:00;;;;;;;24.55;3.72;;;4.50;99.90;;;;;;5083617;28;20580;-80
2024/02/02 02:14:26;;;;;;;21.52;4.70;;;4.50;99.90;;;;;;5083812;28;20222;-80
2024/02/02 02:16:52;;;;;;;19.63;3.77;;;4.50;99.90;;;;;;5083698;28;20188;-80
2024/02/02 02:19:17;;;;;;;29.45;5.68;;;4.50;99.90;;;;;;5083022;28;20407;-80
2024/02/02 02:21:43;;;;;;;32.10;5.63;;;4.40;99.90;;;;;;5083910;28;20214;-81
2024/02/02 02:24:10;;;;;;;21.13;4.00;;;4.30;99.90;;;;;;5083541;28;20888;-81
2024/02/02 02:26:35;;;;;;;22.23;3.47;;;4.30;99.90;;;;;;5081205;28;20395;-80
2024/02/02 02:29:02;;;;;;;29.10;3.72;;;4.30;99.90;;;;;;5083367;28;20167;-80
2024/02/02 02:31:28;;;;;;;24.02;5.40;;;4.30;99.90;;;;;;5082860;28;20234;-80
2024/02/02 02:33:54;;;;;;;33.17;4.87;;;4.30;99.90;;;;;;5080503;28;20627;-80
2024/02/02 02:36:23;;;;;;;25.90;4.13;;;4.30;99.90;;;;;;5082570;28;20399;-80
2024/02/02 02:38:50;;;;;;;20.17;4.07;;;4.30;99.90;;;;;;5083221;28;20171;-80
2024/02/02 02:41:16;;;;;;;28.73;5.65;;;4.30;99.90;;;;;;5083461;28;20511;-80
2024/02/02 02:43:42;;;;;;;25.93;4.50;;;4.30;99.90;;;;;;5082485;28;20247;-80
2024/02/02 02:46:08;;;;;;;22.00;4.83;;;4.40;99.90;;;;;;5082550;28;20187;-80
2024/02/02 02:48:34;;;;;;;33.47;5.30;;;4.40;99.90;;;;;;5082650;28;20852;-80
2024/02/02 02:51:00;;;;;;;18.90;3.70;;;4.40;99.90;;;;;;5083168;28;20153;-80
2024/02/02 02:53:26;;;;;;;24.27;4.65;;;4.50;99.90;;;;;;5083162;28;20172;-80
2024/02/02 02:55:52;;;;;;;27.63;4.97;;;4.50;99.90;;;;;;5081916;28;20169;-80
2024/02/02 02:58:18;;;;;;;29.53;4.10;;;4.60;99.90;;;;;;5081890;28;20192;-80
2024/02/02 03:00:46;;;;;;;27.00;4.73;;;4.60;99.90;;;;;;5082478;28;20172;-80
2024/02/02 03:03:12;;;;;;;20.98;3.70;;;4.60;99.90;;;;;;5082158;28;20254;-80
2024/02/02 03:05:41;;;;;;;26.27;4.37;;;4.70;99.90;;;;;;5082438;28;20157;-80
2024/02/02 03:08:07;;;;;;;26.40;4.60;;;4.70;99.90;;;;;;5082426;28;20260;-80
2024/02/02 03:10:34;;;;;;;23.33;5.43;;;4.70;99.90;;;;;;5082036;28;20156;-80
2024/02/02 03:13:00;;;;;;;39.20;5.13;;;4.70;99.90;;;;;;5082374;28;20248;-80
2024/02/02 03:15:26;;;;;;;23.88;4.55;;;4.70;99.90;;;;;;5082280;28;20209;-80
2024/02/02 03:17:51;;;;;;;28.00;5.03;;;4.80;99.90;;;;;;5079714;28;20188;-80
2024/02/02 03:20:17;;;;;;;23.00;4.33;;;4.80;99.90;;;;;;5080567;28;20407;-80
2024/02/02 03:22:43;;;;;;;26.90;5.10;;;4.90;99.90;;;;;;5078594;28;20447;-80
2024/02/02 03:25:09;;;;;;;25.00;6.10;;;4.90;99.90;;;;;;5079029;28;20186;-80
2024/02/02 03:27:35;;;;;;;27.17;5.60;;;5.00;99.90;;;;;;5081499;28;20191;-80
2024/02/02 03:30:01;;;;;;;27.20;5.30;;;5.10;99.90;;;;;;5082037;28;20168;-80
2024/02/02 03:32:27;;;;;;;30.43;5.70;;;5.20;99.90;;;;;;5081481;28;20172;-81
2024/02/02 03:34:53;;;;;;;25.73;5.50;;;5.10;99.90;;;;;;5079162;28;20423;-82
2024/02/02 03:37:19;;;;;;;29.30;5.90;;;5.20;99.90;;;;;;5081752;28;20218;-82
2024/02/02 03:39:45;;;;;;;31.60;4.88;;;5.20;99.90;;;;;;5079981;28;20203;-82
2024/02/02 03:42:12;;;;;;;29.23;6.05;;;5.30;99.90;;;;;;5079855;28;20191;-80
2024/02/02 03:44:38;;;;;;;32.38;6.38;;;5.30;99.90;;;;;;5079363;28;20640;-80
2024/02/02 03:47:03;;;;;;;22.53;4.70;;;5.30;99.90;;;;;;5078914;28;20188;-80
2024/02/02 03:49:32;;;;;;;27.20;5.37;;;5.40;99.90;;;;;;5077363;28;20403;-80
2024/02/02 03:52:00;;;;;;;25.02;5.13;;;5.40;99.90;;;;;;5078924;28;20196;-81
2024/02/02 03:54:26;;;;;;;22.63;4.85;;;5.50;99.90;;;;;;5078199;28;20183;-81
2024/02/02 03:56:52;;;;;;;29.50;5.50;;;5.50;99.90;;;;;;5078397;28;20185;-81
2024/02/02 03:59:17;;;;;;;29.07;5.50;;;5.50;99.90;;;;;;5079002;28;20474;-81
2024/02/02 04:01:43;;;;;;;23.30;5.37;;;5.60;99.90;;;;;;5082302;28;20161;-81
2024/02/02 04:04:09;;;;;;;37.17;7.03;;;5.50;99.90;;;;;;5082567;28;20184;-81
2024/02/02 04:06:35;;;;;;;28.95;5.32;;;5.50;99.90;;;;;;5081210;28;20164;-81
2024/02/02 04:09:00;;;;;;;30.27;5.53;;;5.50;99.90;;;;;;5082031;28;20638;-82
2024/02/02 04:11:26;;;;;;;28.00;6.03;;;5.50;99.90;;;;;;5081741;28;20164;-81
2024/02/02 04:13:52;;;;;;;36.17;5.30;;;5.50;99.90;;;;;;5083053;28;20225;-82
2024/02/02 04:16:17;;;;;;;31.43;5.90;;;5.60;99.90;;;;;;5085518;28;20187;-81
2024/02/02 04:18:43;;;;;;;26.93;5.77;;;5.60;99.90;;;;;;5085715;28;20188;-81
2024/02/02 04:21:09;;;;;;;31.17;4.90;;;5.60;99.90;;;;;;5085750;28;20190;-81
2024/02/02 04:23:34;;;;;;;20.53;4.07;;;5.50;99.90;;;;;;5083923;28;20203;-81
2024/02/02 04:26:00;;;;;;;35.73;6.67;;;5.50;99.90;;;;;;5085005;28;20156;-82
2024/02/02 04:28:26;;;;;;;28.60;5.00;;;5.50;99.90;;;;;;5085396;28;20192;-81
2024/02/02 04:30:51;;;;;;;25.50;4.90;;;5.50;99.90;;;;;;5083083;28;20167;-81
2024/02/02 04:33:17;;;;;;;41.40;6.30;;;5.50;99.90;;;;;;5083299;28;20164;-82
2024/02/02 04:35:43;;;;;;;31.03;6.70;;;5.50;99.90;;;;;;5083689;28;20638;-81
2024/02/02 04:38:08;;;;;;;28.40;5.50;;;5.60;99.90;;;;;;5083314;28;20187;-81
2024/02/02 04:40:34;;;;;;;25.93;5.10;;;5.50;99.90;;;;;;5083450;28;20240;-81
2024/02/02 04:43:00;;;;;;;26.93;5.13;;;5.50;99.90;;;;;;5082897;28;20267;-82
2024/02/02 04:45:28;;;;;;;27.70;5.77;;;5.60;99.90;;;;;;5083053;28;20224;-82
2024/02/02 04:47:54;;;;;;;31.20;5.88;;;5.50;99.90;;;;;;5082336;28;20218;-81
2024/02/02 04:50:21;;;;;;;28.90;5.53;;;5.60;99.90;;;;;;5082542;28;20297;-82
2024/02/02 04:52:47;;;;;;;25.48;5.00;;;5.50;99.90;;;;;;5081317;28;20175;-82
2024/02/02 04:55:13;;;;;;;27.13;4.93;;;5.60;99.90;;;;;;5085038;28;20243;-82
2024/02/02 04:57:39;;;;;;;29.27;5.67;;;5.50;99.90;;;;;;5084466;28;20188;-82
2024/02/02 05:00:05;;;;;;;25.00;4.60;;;5.60;99.90;;;;;;5084543;28;20449;-81
2024/02/02 05:02:31;;;;;;;34.97;5.93;;;5.60;99.90;;;;;;5085014;28;20669;-82
2024/02/02 05:04:57;;;;;;;30.52;6.00;;;5.60;99.90;;;;;;5082276;28;20172;-82
2024/02/02 05:07:29;;;;;;;25.00;4.50;;;5.50;99.90;;;;;;5083261;28;20545;-82
2024/02/02 05:09:58;;;;;;;32.47;6.00;;;5.50;99.90;;;;;;5083217;28;20414;-81
2024/02/02 05:12:24;;;;;;;24.40;4.32;;;5.50;99.90;;;;;;5082793;28;20352;-81
2024/02/02 05:14:49;;;;;;;31.73;5.37;;;5.40;99.90;;;;;;5082188;28;20634;-82
2024/02/02 05:17:16;;;;;;;24.87;4.70;;;5.40;99.90;;;;;;5082463;28;20184;-81
2024/02/02 05:19:42;;;;;;;24.85;4.68;;;5.30;99.90;;;;;;5082603;28;20243;-81
2024/02/02 05:22:07;;;;;;;23.83;4.70;;;5.30;99.90;;;;;;5084322;28;20216;-81
2024/02/02 05:24:34;;;;;;;30.90;6.37;;;5.30;99.90;;;;;;5083153;28;20400;-82
2024/02/02 05:27:00;;;;;;;30.38;4.95;;;5.20;99.90;;;;;;5082692;28;20187;-81
2024/02/02 05:29:26;;;;;;;28.70;5.40;;;5.20;99.90;;;;;;5082344;28;20243;-81
2024/02/02 05:31:52;;;;;;;32.47;5.83;;;5.20;99.90;;;;;;5082922;28;20642;-81
2024/02/02 05:34:17;;;;;;;24.43;5.50;;;5.10;99.90;;;;;;5082743;28;20401;-81
2024/02/02 05:36:44;;;;;;;21.50;4.83;;;5.10;99.90;;;;;;5082815;28;20192;-82
2024/02/02 05:39:10;;;;;;;31.30;6.00;;;5.10;99.90;;;;;;5083418;28;20171;-81
2024/02/02 05:41:36;;;;;;;34.87;6.50;;;5.10;99.90;;;;;;5082135;28;20260;-81
2024/02/02 05:44:02;;;;;;;24.65;5.25;;;5.10;99.90;;;;;;5063864;28;20403;-81
2024/02/02 05:46:28;;;;;;;29.00;6.03;;;5.10;99.90;;;;;;5080333;28;20164;-81
2024/02/02 05:48:53;;;;;;;22.33;5.90;;;5.00;99.90;;;;;;5081839;28;20412;-81
2024/02/02 05:51:19;;;;;;;24.70;5.87;;;5.00;99.90;;;;;;5082514;28;20156;-82
2024/02/02 05:53:45;;;;;;;26.50;5.77;;;5.00;99.90;;;;;;5082686;28;20203;-81
2024/02/02 05:56:11;;;;;;;27.20;4.60;;;4.90;99.90;;;;;;5081607;28;20160;-81
2024/02/02 05:58:36;;;;;;;29.97;5.27;;;4.90;99.90;;;;;;5080302;28;20533;-80
2024/02/02 06:01:02;;;;;;;27.63;5.23;;;4.90;99.90;;;;;;5080637;28;20239;-82
2024/02/02 06:03:28;;;;;;;24.17;5.18;;;4.80;99.90;;;;;;5081855;28;20188;-80
2024/02/02 06:05:55;;;;;;;33.90;5.00;;;4.80;99.90;;;;;;5082571;28;20703;-80
2024/02/02 06:08:20;;;;;;;27.08;5.15;;;4.80;99.90;;;;;;5082159;28;20200;-81
2024/02/02 06:10:46;;;;;;;28.57;4.87;;;4.80;99.90;;;;;;5080986;28;20157;-81
2024/02/02 06:13:12;;;;;;;23.93;4.50;;;4.90;99.90;;;;;;5081047;28;20256;-81
2024/02/02 06:15:37;;;;;;;25.00;5.30;;;4.90;99.90;;;;;;5080493;28;20175;-81
2024/02/02 06:18:03;;;;;;;26.53;6.07;;;4.90;99.90;;;;;;5080375;28;20211;-81
2024/02/02 06:20:29;;;;;;;26.95;5.32;;;4.90;99.90;;;;;;5079808;28;20184;-81
2024/02/02 06:22:54;;;;;;;20.30;4.83;;;4.90;99.90;;;;;;5080608;28;20185;-80
2024/02/02 06:25:20;;;;;;;28.40;5.10;;;5.00;99.90;;;;;;5080806;28;20239;-81
2024/02/02 06:27:46;;;;;;;27.53;4.60;;;4.90;99.90;;;;;;5081207;28;20572;-80
2024/02/02 06:30:12;;;;;;;37.60;5.00;;;5.00;99.90;;;;;;5081831;28;20168;-81
2024/02/02 06:32:40;;;;;;;28.63;5.10;;;4.90;99.90;;;;;;5082462;28;20248;-81
2024/02/02 06:35:05;;;;;;;31.50;5.10;;;4.90;99.90;;;;;;5079984;28;20307;-81
2024/02/02 06:37:32;;;;;;;23.43;4.43;;;4.90;99.90;;;;;;5078941;28;20212;-80
2024/02/02 06:40:03;;;;;;;22.23;5.07;;;4.90;99.90;;;;;;5080060;28;20403;-81
2024/02/02 06:42:29;;;;;;;27.58;4.93;;;4.90;99.90;;;;;;5079838;28;20172;-81
2024/02/02 06:44:57;;;;;;;32.70;6.30;;;4.90;99.90;;;;;;5079439;28;20247;-80
2024/02/02 06:47:23;;;;;;;23.80;5.30;;;4.90;99.90;;;;;;5080369;28;20539;-81
2024/02/02 06:49:49;;;;;;;26.30;5.68;;;5.00;99.90;;;;;;5079092;28;20596;-79
2024/02/02 06:52:16;;;;;;;23.55;4.82;;;4.90;99.90;;;;;;5079295;28;20203;-80
2024/02/02 06:54:43;;;;;;;27.20;5.78;;;5.00;99.90;;;;;;5080994;28;20160;-80
2024/02/02 06:57:09;;;;;;;27.42;5.70;;;5.00;99.90;;;;;;5081450;28;20208;-79
2024/02/02 06:59:35;;;;;;;24.90;5.20;;;5.10;99.90;;;;;;5080097;28;20252;-79
2024/02/02 07:02:18;;;;;;;28.92;6.15;;;5.10;99.90;;;;;;5080832;28;20188;-79
2024/02/02 07:04:44;;;;;;;21.90;4.40;;;5.10;99.90;;;;;;5080080;28;20145;-79
2024/02/02 07:07:10;;;;;;;37.33;5.60;;;5.10;99.90;;;;;;5080492;28;20238;-79
2024/02/02 07:09:36;;;;;;;29.70;5.70;;;5.00;99.90;;;;;;5080692;28;20160;-79
2024/02/02 07:12:09;;;;;;;26.55;5.53;;;5.00;99.90;;;;;;5078843;28;20256;-80
2024/02/02 07:14:45;;;;;;;28.23;5.20;;;5.10;99.90;;;;;;5079317;28;20225;-80
2024/02/02 07:17:40;;;;;;;27.85;5.20;;;5.10;99.90;;;;;;5080054;28;20188;-81
2024/02/02 07:20:08;;;;;;;29.52;5.28;;;5.10;99.90;;;;;;5079237;28;20204;-79
2024/02/02 07:22:39;;;;;;;25.60;5.18;;;5.10;99.90;;;;;;5084677;28;20193;-82
2024/02/02 07:25:13;;;;;;;26.15;4.40;;;5.10;99.90;;;;;;5092365;28;20153;-81
2024/02/02 07:28:25;;;;;;;27.48;5.60;;;5.10;99.90;;;;;;5087450;28;20187;-82
2024/02/02 07:30:55;;;;;;;20.85;4.32;;;5.10;99.90;;;;;;5087429;28;20180;-82
2024/02/02 07:33:45;;;;;;;26.38;5.07;;;5.10;99.90;;;;;;5079298;28;20149;-81
2024/02/02 07:36:41;;;;;;;23.90;6.45;;;5.10;99.90;;;;;;5078615;28;20152;-81
2024/02/02 07:39:25;;;;;;;23.90;5.22;;;5.20;99.90;;;;;;5077021;28;20176;-80
2024/02/02 07:41:51;;;;;;;27.90;5.35;;;5.10;99.90;;;;;;5078246;28;20152;-80
2024/02/02 07:44:17;;;;;;;24.20;5.27;;;5.10;99.90;;;;;;5077535;28;20164;-80
2024/02/02 07:46:42;;;;;;;26.73;4.93;;;5.20;99.90;;;;;;5077475;28;20181;-81
2024/02/02 07:49:09;;;;;;;29.53;5.03;;;5.20;99.90;;;;;;5076390;28;20708;-80
2024/02/02 07:51:37;;;;;;;26.08;4.55;;;5.20;99.90;;;;;;5077556;28;20168;-81
2024/02/02 07:54:03;;;;;;;23.35;5.07;;;5.20;99.90;;;;;;5076103;28;20160;-80
2024/02/02 07:56:29;;;;;;;31.67;6.57;;;5.20;99.90;;;;;;5078639;28;20196;-81
2024/02/02 07:58:58;;;;;;;27.00;4.77;;;5.20;99.90;;;;;;5076973;28;20488;-80
2024/02/02 08:01:24;;;;;;;27.73;5.28;;;5.20;99.90;;;;;;5077746;28;20182;-80
2024/02/02 08:03:51;;;;;;;27.10;5.47;;;5.30;99.90;;;;;;5077572;28;20212;-80
2024/02/02 08:06:16;;;;;;;33.25;6.88;;;5.30;99.90;;;;;;5077646;28;20525;-81
2024/02/02 08:08:42;;;;;;;22.87;6.47;;;5.30;99.90;;;;;;5075715;28;20193;-80
2024/02/02 08:11:08;;;;;;;21.00;5.33;;;5.30;99.90;;;;;;5076508;28;20161;-81
2024/02/02 08:13:34;;;;;;;26.90;5.60;;;5.30;99.90;;;;;;5076950;28;20183;-80
2024/02/02 08:16:00;;;;;;;33.38;6.38;;;5.30;99.90;;;;;;5077512;28;20212;-80
2024/02/02 08:18:27;;;;;;;28.20;5.77;;;5.30;99.90;;;;;;5074695;28;20184;-80
2024/02/02 08:20:52;;;;;;;27.50;5.85;;;5.30;99.90;;;;;;5075721;28;20169;-81
2024/02/02 08:23:18;;;;;;;27.23;7.30;;;5.40;99.90;;;;;;5076745;28;20188;-80
2024/02/02 08:25:44;;;;;;;32.57;7.37;;;5.40;99.90;;;;;;5076634;28;20232;-80
2024/02/02 08:28:10;;;;;;;26.83;7.03;;;5.40;99.90;;;;;;5076620;28;20480;-80
2024/02/02 08:30:35;;;;;;;30.57;7.10;;;5.40;99.90;;;;;;5077739;28;20218;-80
2024/02/02 08:33:01;;;;;;;35.70;7.73;;;5.50;99.90;;;;;;5077231;28;20672;-80
2024/02/02 08:35:28;;;;;;;27.10;6.37;;;5.50;99.90;;;;;;5077050;28;20161;-80
2024/02/02 08:38:00;;;;;;;34.83;6.93;;;5.50;99.90;;;;;;5077095;28;20196;-80
2024/02/02 08:40:44;;;;;;;33.47;6.75;;;5.60;99.90;;;;;;5077310;28;20173;-81
2024/02/02 08:43:19;;;;;;;27.25;6.90;;;5.70;99.90;;;;;;5077202;28;20271;-81
2024/02/02 08:46:00;;;;;;;34.17;6.40;;;5.80;99.90;;;;;;5075487;28;20222;-80
2024/02/02 08:48:52;;;;;;;29.83;6.65;;;5.90;99.90;;;;;;5076944;28;20188;-80
2024/02/02 08:51:23;;;;;;;22.85;5.35;;;5.90;99.90;;;;;;5076675;28;20187;-80
2024/02/02 08:53:54;;;;;;;25.33;5.90;;;5.90;99.90;;;;;;5076614;28;20169;-80
2024/02/02 08:56:20;;;;;;;30.13;5.88;;;6.10;99.90;;;;;;5076374;28;20161;-80
2024/02/02 08:58:45;;;;;;;30.80;7.50;;;6.10;99.90;;;;;;5078669;28;20567;-80
2024/02/02 09:01:37;;;;;;;24.27;6.30;;;6.10;99.90;;;;;;5080009;28;20408;-80
2024/02/02 09:04:05;;;;;;;26.00;6.97;;;6.20;99.90;;;;;;5080551;28;20715;-81
2024/02/02 09:06:40;;;;;;;24.40;5.20;;;6.20;99.90;;;;;;5082159;28;20168;-81
2024/02/02 09:09:06;;;;;;;23.00;6.15;;;6.30;99.90;;;;;;5080740;28;20149;-80
2024/02/02 09:11:33;;;;;;;22.13;6.20;;;6.40;99.90;;;;;;5081032;28;20199;-80
2024/02/02 09:14:14;;;;;;;34.08;4.88;;;6.50;99.90;;;;;;5081838;28;20398;-80
2024/02/02 09:16:45;;;;;;;22.55;3.38;;;6.60;99.90;;;;;;5079853;28;20180;-80
2024/02/02 09:19:40;;;;;;;17.13;2.40;;;6.70;99.70;;;;;;5080024;28;20240;-80
2024/02/02 09:22:11;;;;;;;19.13;2.65;;;6.90;81.00;;;;;;5080410;28;20188;-80
2024/02/02 09:24:46;;;;;;;23.15;2.80;;;7.10;84.50;;;;;;5080708;28;20226;-80
2024/02/02 09:27:32;;;;;;;21.42;2.38;;;7.20;50.40;;;;;;5081431;28;20209;-81
2024/02/02 09:29:59;;;;;;;30.50;3.05;;;7.40;52.80;;;;;;5081376;28;20255;-81
2024/02/02 09:32:26;;;;;;;17.45;2.30;;;7.50;36.20;;;;;;5080960;28;20171;-81
2024/02/02 09:34:52;;;;;;;19.70;2.38;;;7.60;40.90;;;;;;5081102;28;20199;-81
2024/02/02 09:37:25;;;;;;;23.30;2.55;;;7.70;34.50;;;;;;5081368;28;20185;-80
2024/02/02 09:39:54;;;;;;;18.75;2.55;;;7.70;28.30;;;;;;5080458;28;20161;-80
2024/02/02 09:42:48;;;;;;;20.27;2.38;;;7.80;12.90;;;;;;5079919;28;20192;-81
2024/02/02 09:45:43;;;;;;;18.83;2.45;;;7.90;14.20;;;;;;5080049;28;20244;-80
2024/02/02 09:48:32;;;;;;;25.50;2.30;;;8.00;18.40;;;;;;5079518;28;20188;-80
2024/02/02 09:51:38;;;;;;;22.85;3.25;;;8.10;16.10;;;;;;5081315;28;20541;-80
2024/02/02 09:54:22;;;;;;;21.85;3.08;;;8.20;11.90;;;;;;5080445;28;20218;-81
2024/02/02 09:57:15;;;;;;;27.58;2.55;;;8.20;2.30;;;;;;5080709;28;20215;-80
2024/02/02 10:00:06;;;;;;;18.02;2.47;;;8.20;1.00;;;;;;5080425;28;20172;-80
2024/02/02 10:02:51;;;;;;;27.55;3.10;;;8.30;6.80;;;;;;5081716;28;20191;-83
2024/02/02 10:05:20;;;;;;;21.80;2.40;;;8.30;1.00;;;;;;5080297;28;20167;-81
2024/02/02 10:08:21;;;;;;;18.25;2.50;;;8.40;3.90;;;;;;5081051;28;20180;-80
2024/02/02 10:11:08;;;;;;;22.27;2.65;;;8.50;1.00;;;;;;5080807;28;20183;-80
2024/02/02 10:13:45;;;;;;;23.38;2.85;;;8.40;1.00;;;;;;5079877;28;20157;-81
2024/02/02 10:16:20;;;;;;;26.30;3.47;;;8.50;1.00;;;;;;5081012;28;20644;-81
2024/02/02 10:19:19;;;;;;;19.48;2.05;;;8.60;1.00;;;;;;5081459;28;20192;-80
2024/02/02 10:22:09;;;;;;;23.73;3.33;;;8.60;1.00;;;;;;5081485;28;20236;-81
2024/02/02 10:25:13;;;;;;;21.10;2.40;;;8.60;1.00;;;;;;5081453;28;20563;-80
2024/02/02 10:28:03;;;;;;;22.88;2.95;;;8.70;1.40;;;;;;5077999;28;20188;-80
2024/02/02 10:31:05;;;;;;;21.27;2.65;;;8.70;1.00;;;;;;5079869;28;20202;-80
2024/02/02 10:33:45;;;;;;;26.90;2.53;;;8.80;1.00;;;;;;5080607;28;20577;-80
2024/02/02 10:36:41;;;;;;;22.55;2.17;;;8.80;1.00;;;;;;5079517;28;20160;-80
2024/02/02 10:39:11;;;;;;;25.38;3.10;;;8.90;1.00;;;;;;5080345;28;20164;-81
2024/02/02 10:41:58;;;;;;;21.75;2.53;;;8.90;1.00;;;;;;5079744;28;20275;-81
2024/02/02 10:44:39;;;;;;;22.30;2.72;;;8.90;1.00;;;;;;5080809;28;20216;-80
2024/02/02 10:47:26;;;;;;;21.98;2.60;;;8.90;1.00;;;;;;5080684;28;20260;-81
2024/02/02 10:50:18;;;;;;;25.60;3.22;;;9.00;1.00;;;;;;5080692;28;20224;-82
2024/02/02 10:52:56;;;;;;;20.50;2.75;;;9.10;1.00;;;;;;5080057;28;20168;-81
2024/02/02 10:55:52;;;;;;;21.00;2.60;;;9.20;1.00;;;;;;5079833;28;20167;-81
2024/02/02 10:58:40;;;;;;;21.25;2.65;;;9.30;1.00;;;;;;5078854;28;20212;-81
2024/02/02 11:01:36;;;;;;;21.63;1.95;;;9.40;1.00;;;;;;5079826;28;20243;-80
2024/02/02 11:04:07;;;;;;;22.40;2.78;;;9.40;1.00;;;;;;5079716;28;20204;-81
2024/02/02 11:07:04;;;;;;;20.85;2.55;;;9.50;1.00;;;;;;5077658;28;20169;-80
2024/02/02 11:09:52;;;;;;;17.88;2.40;;;9.50;1.00;;;;;;5080213;28;20145;-80
2024/02/02 11:12:36;;;;;;;22.13;2.42;;;9.60;1.00;;;;;;5078707;28;20159;-81
2024/02/02 11:15:20;;;;;;;19.17;2.67;;;9.70;1.00;;;;;;5078792;28;20602;-81
2024/02/02 11:18:07;;;;;;;31.40;3.00;;;9.70;1.00;;;;;;5082420;28;20196;-81
2024/02/02 11:20:41;;;;;;;22.00;2.65;;;9.70;1.00;;;;;;5070816;28;20226;-80
2024/02/02 11:23:24;;;;;;;18.73;2.50;;;9.80;1.00;;;;;;5080353;28;20180;-80
2024/02/02 11:25:56;;;;;;;20.38;2.58;;;9.90;1.00;;;;;;5079036;28;20153;-81
2024/02/02 11:28:38;;;;;;;21.30;2.90;;;9.90;1.00;;;;;;5078329;28;20234;-80
2024/02/02 11:31:24;;;;;;;20.17;2.75;;;10.00;1.00;;;;;;5077865;28;20152;-80
2024/02/02 11:33:56;;;;;;;21.10;2.60;;;10.00;1.00;;;;;;5078002;28;20151;-80
2024/02/02 11:36:52;;;;;;;20.50;2.63;;;10.10;1.00;;;;;;5078179;28;20218;-81
2024/02/02 11:39:33;;;;;;;24.13;2.83;;;10.20;1.00;;;;;;5078437;28;20172;-81
2024/02/02 11:42:01;;;;;;;18.38;2.42;;;10.30;1.00;;;;;;5078434;28;20660;-83
2024/02/02 11:44:28;;;;;;;22.17;2.50;;;10.30;1.00;;;;;;5076303;28;20562;-82
2024/02/02 11:46:55;;;;;;;21.92;2.85;;;10.30;1.00;;;;;;5079813;28;20212;-82
2024/02/02 11:49:32;;;;;;;20.38;3.22;;;10.30;1.00;;;;;;5078176;28;20255;-81
2024/02/02 11:52:04;;;;;;;21.50;3.60;;;10.30;1.00;;;;;;5077499;28;20526;-80
2024/02/02 11:54:50;;;;;;;20.90;2.95;;;10.40;1.00;;;;;;5078938;28;20164;-80
2024/02/02 11:57:20;;;;;;;22.10;2.80;;;10.40;1.00;;;;;;5077808;28;20184;-80
2024/02/02 11:59:49;;;;;;;25.40;3.40;;;10.50;1.00;;;;;;5079068;28;20286;-81
2024/02/02 12:02:27;;;;;;;20.20;2.20;;;10.60;1.00;;;;;;5078844;28;20184;-82
2024/02/02 12:05:28;;;;;;;20.35;2.33;;;10.50;1.00;;;;;;5079675;28;20522;-80
2024/02/02 12:08:02;;;;;;;23.10;2.58;;;10.50;1.00;;;;;;5078656;28;20651;-81
2024/02/02 12:10:29;;;;;;;22.88;2.83;;;10.50;1.00;;;;;;5078014;28;20149;-81
2024/02/02 12:12:59;;;;;;;21.25;2.38;;;10.50;1.00;;;;;;5078034;28;20175;-80
2024/02/02 12:15:26;;;;;;;20.08;2.70;;;10.60;1.00;;;;;;5076217;28;20179;-80
2024/02/02 12:17:53;;;;;;;20.48;3.10;;;10.50;1.00;;;;;;5079657;28;20180;-81
2024/02/02 12:20:18;;;;;;;21.92;2.70;;;10.60;1.00;;;;;;5079374;28;20176;-82
2024/02/02 12:22:45;;;;;;;23.93;3.00;;;10.60;1.00;;;;;;5079717;28;20557;-81
2024/02/02 12:25:13;;;;;;;17.55;2.50;;;10.60;1.00;;;;;;5079989;28;20474;-80
2024/02/02 12:27:39;;;;;;;26.10;3.10;;;10.60;1.00;;;;;;5080480;28;20177;-80
2024/02/02 12:30:07;;;;;;;27.45;3.70;;;10.60;1.00;;;;;;5079724;28;20157;-82
2024/02/02 12:32:34;;;;;;;16.80;2.53;;;10.60;1.00;;;;;;5079213;28;20169;-81
2024/02/02 12:34:59;;;;;;;17.85;2.17;;;10.60;1.00;;;;;;5079242;28;20177;-81
2024/02/02 12:37:25;;;;;;;21.60;3.00;;;10.60;1.00;;;;;;5082052;28;20234;-81
2024/02/02 12:39:54;;;;;;;20.73;2.60;;;10.60;1.00;;;;;;5083827;28;20442;-82
2024/02/02 12:43:07;;;;;;;18.35;2.75;;;10.60;1.00;;;;;;5083677;28;20197;-82
2024/02/02 12:45:33;;;;;;;19.70;2.42;;;10.70;1.00;;;;;;5084598;28;20168;-80
2024/02/02 12:48:00;;;;;;;22.40;3.00;;;10.60;1.00;;;;;;5083667;28;20715;-80
2024/02/02 12:50:26;;;;;;;24.23;4.03;;;10.60;1.00;;;;;;5080642;28;20168;-82
2024/02/02 12:52:53;;;;;;;20.00;3.13;;;10.50;1.00;;;;;;5081223;28;20175;-81
2024/02/02 12:55:19;;;;;;;19.67;2.65;;;10.50;1.20;;;;;;5083343;28;20398;-83
2024/02/02 12:57:45;;;;;;;18.30;2.53;;;10.50;4.60;;;;;;5081975;28;20700;-80
2024/02/02 13:00:14;;;;;;;18.90;2.97;;;10.50;4.80;;;;;;5082107;28;20149;-81
2024/02/02 13:02:45;;;;;;;19.27;3.35;;;10.50;5.20;;;;;;5082654;28;20198;-81
2024/02/02 13:05:18;;;;;;;21.05;3.83;;;10.50;10.00;;;;;;5084027;28;20220;-81